Saturday, November 01, 2014
01:52 UTC
  |  Log In   |  Register Free
Airport Search:

Indiana County/Jimmy Stewart Fld/ Airport
(KIDI)

Indiana County/Jimmy Stewart Fld/ Airport Diagram
No Airport Diagram Available

FAA data valid effective September 18, 2014 - November 13, 2014 (unless otherwise noted).

 
 
 
 
 
 
 
 
 
 
 
 
 
 

Current Aviation Weather for Indiana County/Jimmy Stewart Fld/ Airport (KIDI)

The most recent METAR observation for KIDI was updated at: 0118
METAR Summary (Translated METAR)
KIDI
010055Z AUTO 07004KT 5SM BR BKN021 OVC028 05/05 A2991 RMK A01
KJST
010054Z AUTO 05005KT 4SM -RA BR BKN026 OVC034 04/03 A2984 RMK AO2 SLP118 P0002 T00390028
(22.7 nm SE from KIDI)
KLBE
010050Z 00000KT 5SM -RA BR BKN005 OVC013 05/05 A2989
(25.5 nm SW from KIDI)
TAF Summary (Translated TAF)
KJST
(22.7 nm SE from KIDI)
010006Z 0100/0124 10006KT 5SM -RA BR BKN018 OVC025 FM010500 05005KT 4SM -RA BR OVC010 FM011300 03008G15KT 3SM -RA BR BKN009 OVC015
KLBE
(25.5 nm SW from KIDI)
312240Z 3123/0118 VRB04KT P6SM -SHRA SCT009 OVC025 TEMPO 3123/0103 5SM -SHRA BKN009 FM010300 04005KT 5SM -RA BR OVC010 FM011300 01010G15KT P6SM VCSH SCT015 BKN025
  Airport Weather Conditions for KIDI

 Current Weather at IDI
41° F
Fog/Mist
East winds at 4.6 mph
IDI NOAA Radar

Pressure: 29.91 in
Humidity: 100%
Wind: East at 4.6 MPH (4 KT)
Dew Point: 41.0°F
Visibility: 5.00 mi


Airport Weather Forecast for KIDI

Translated METAR and TAF for KIDI
Translated METAR for KIDI (0147 UTC 01 November 2014)
found at http://aviationweather.gov/adds/metars/
 
METAR text: KIDI 010135Z AUTO VRB03KT 4SM BR BKN023 OVC030 05/05 A2991 RMK A01
Conditions at: KIDI (INDIANA/STEWART , PA, US) observed 0135 UTC 01 November 2014
Temperature: 5.0°C (41°F)
Dewpoint: 5.0°C (41°F) [RH = 100%]
Pressure (altimeter): 29.91 inches Hg (1013.0 mb)
Winds: variable direction winds at 3 MPH (3 knots; 1.6 m/s)
Visibility: 4 miles (6 km)
Ceiling: 2300 feet AGL
Clouds: broken clouds at 2300 feet AGL
overcast cloud deck at 3000 feet AGL
Weather: BR  (mist)
Translated TAF for KIDI

There is no translated TAF available for this airport

Find All Airport Services Find A Hotel Find A Rental Car Find A Golf Course Find A Restaurant $100 Hamburger



FBO's on the Field
FBO Company Facility Photos Services Transportation Aviation Fuel Prices: Prices include tax
Catering Weather Repair Courtesy Rental Type 100LL JetA JetA+ MOGAS 8087
 
Indiana County Jimmy Stewart Airport

Currently rated 5 by 1 person
FS:Phillips 66
Last Updated: Oct-29
Login to update fuel prices
SS:
Contact Indiana County Jimmy Stewart AirportMore FBO Information
 
Add another FBO Facility Photos Catering Weather Repair Courtesy Rental Type 100LL JetA JetA+ MOGAS 8087
Services Transportation Aviation Fuel Prices: Prices include tax


model-print
model-print
model-print
model-print